createdAt,value
2022-10-06T00:00:02.684Z,15.53
2022-10-06T00:05:03.320Z,15.46
2022-10-06T00:10:02.968Z,15.47
2022-10-06T00:15:02.763Z,15.25
2022-10-06T00:20:02.405Z,15.26
2022-10-06T00:25:03.351Z,15.07
2022-10-06T00:30:08.783Z,15.01
2022-10-06T00:35:02.622Z,14.83
2022-10-06T00:40:03.042Z,14.75
2022-10-06T00:45:02.613Z,14.73
2022-10-06T00:50:03.395Z,14.68
2022-10-06T00:55:04.170Z,15.05
2022-10-06T01:00:02.725Z,15.11
2022-10-06T01:05:03.370Z,15.12
2022-10-06T01:10:03.043Z,15.17
2022-10-06T01:15:03.461Z,15.3
2022-10-06T01:20:03.001Z,15.34
2022-10-06T01:25:02.647Z,15.37
2022-10-06T01:30:02.838Z,15.11
2022-10-06T01:35:02.523Z,14.71
2022-10-06T01:40:03.189Z,14.41
2022-10-06T01:45:03.055Z,14.24
2022-10-06T01:50:03.456Z,14.16
2022-10-06T01:55:04.158Z,14.37
2022-10-06T02:00:02.745Z,14.46
2022-10-06T02:05:03.388Z,14.29
2022-10-06T02:10:03.032Z,14
2022-10-06T02:15:02.693Z,14.02
2022-10-06T02:20:03.404Z,14.09
2022-10-06T02:25:03.144Z,14.21
2022-10-06T02:30:02.841Z,14.06
2022-10-06T02:35:03.284Z,13.97
2022-10-06T02:40:02.958Z,13.94
2022-10-06T02:45:02.666Z,13.87
2022-10-06T02:50:03.244Z,14.31
2022-10-06T02:55:04.075Z,14.63
2022-10-06T03:00:02.383Z,15.34
2022-10-06T03:05:02.883Z,15.34
2022-10-06T03:10:02.549Z,15.31
2022-10-06T03:15:03.190Z,15.46
2022-10-06T03:20:02.864Z,15.81
2022-10-06T03:25:02.468Z,15.91
2022-10-06T03:30:03.144Z,15.97
2022-10-06T03:35:02.955Z,16.4
2022-10-06T03:40:02.382Z,16.48
2022-10-06T03:45:03.238Z,16.51
2022-10-06T03:50:02.811Z,16.47
2022-10-06T03:55:03.903Z,16.48
2022-10-06T04:00:03.081Z,16.68
2022-10-06T04:05:02.710Z,16.38
2022-10-06T04:10:02.378Z,16.13
2022-10-06T04:15:03.093Z,15.93
2022-10-06T04:20:02.751Z,15.81
2022-10-06T04:25:02.474Z,15.77
2022-10-06T04:30:03.277Z,15.62
2022-10-06T04:35:02.961Z,15.58
2022-10-06T04:40:02.633Z,15.59
2022-10-06T04:45:03.312Z,15.53
2022-10-06T04:50:02.931Z,15.51
2022-10-06T04:55:03.742Z,15.4
2022-10-06T05:00:12.541Z,15.24
2022-10-06T05:05:02.783Z,15.11
2022-10-06T05:10:02.759Z,14.82
2022-10-06T05:15:03.172Z,14.62
2022-10-06T05:20:02.865Z,14.37
2022-10-06T05:25:02.558Z,14.4
2022-10-06T05:30:03.319Z,14.24
2022-10-06T05:35:02.922Z,14.19
2022-10-06T05:40:02.618Z,14.13
2022-10-06T05:45:03.289Z,14.1
2022-10-06T05:50:02.825Z,14.12
2022-10-06T05:55:03.701Z,14.09
2022-10-06T06:00:03.326Z,14.14
2022-10-06T06:05:02.985Z,14.2
2022-10-06T06:10:02.660Z,14.34
2022-10-06T06:15:02.412Z,14.36
2022-10-06T06:20:03.047Z,14.46
2022-10-06T06:25:02.714Z,14.52
2022-10-06T06:30:02.428Z,14.59
2022-10-06T06:35:03.034Z,14.63
2022-10-06T06:40:02.731Z,14.63
2022-10-06T06:45:02.431Z,14.8
2022-10-06T06:50:03.087Z,14.72
2022-10-06T06:55:04.108Z,15.26
2022-10-06T07:00:02.486Z,15.43
2022-10-06T07:05:03.153Z,15.75
2022-10-06T07:10:02.799Z,15.55
2022-10-06T07:15:02.498Z,15.29
2022-10-06T07:20:03.167Z,16.11
2022-10-06T07:25:02.844Z,16.38
2022-10-06T07:30:02.672Z,16.6
2022-10-06T07:35:03.149Z,17.2
2022-10-06T07:40:03.302Z,16.65
2022-10-06T07:45:02.991Z,16.84
2022-10-06T07:50:02.694Z,17.06
2022-10-06T07:55:04.638Z,16.96
2022-10-06T08:00:03.835Z,16.84
2022-10-06T08:05:02.634Z,17.44
2022-10-06T08:10:03.364Z,17.35
2022-10-06T08:15:08.165Z,17
2022-10-06T08:20:02.907Z,17.27
2022-10-06T08:25:09.049Z,16.86
2022-10-06T08:30:03.460Z,16.73
2022-10-06T08:35:03.140Z,17.71
2022-10-06T08:40:03.150Z,17.16
2022-10-06T08:45:02.892Z,16.83
2022-10-06T08:50:03.464Z,17.26
2022-10-06T08:55:04.446Z,17.28
2022-10-06T09:00:02.809Z,18.02
2022-10-06T09:05:03.568Z,17.73
2022-10-06T09:10:03.197Z,17.72
2022-10-06T09:15:02.858Z,18.27
2022-10-06T09:20:02.539Z,18.61
2022-10-06T09:25:03.191Z,17.46
2022-10-06T09:30:02.853Z,17.95
2022-10-06T09:35:02.544Z,18.74
2022-10-06T09:40:03.167Z,18.5
2022-10-06T09:45:02.891Z,18.78
2022-10-06T09:50:02.624Z,18.1
2022-10-06T09:55:04.587Z,18.3
2022-10-06T10:00:02.889Z,17.04
2022-10-06T10:05:02.556Z,17.59
2022-10-06T10:10:03.282Z,18.29
2022-10-06T10:15:03.003Z,18.74
2022-10-06T10:20:02.715Z,18.3
2022-10-06T10:25:02.387Z,18.63
2022-10-06T10:30:03.122Z,18.45
2022-10-06T10:35:02.788Z,17.54
2022-10-06T10:40:02.444Z,17.84
2022-10-06T10:45:03.168Z,18.84
2022-10-06T10:50:02.742Z,18.68
2022-10-06T10:55:03.457Z,18.93
2022-10-06T11:00:03.132Z,19.1
2022-10-06T11:05:02.753Z,18.9
2022-10-06T11:10:02.433Z,18.66
2022-10-06T11:15:03.060Z,18.91
2022-10-06T11:20:02.798Z,18.63
2022-10-06T11:25:03.495Z,18.87
2022-10-06T11:30:03.103Z,19.09
2022-10-06T11:35:02.930Z,19.1
2022-10-06T11:40:02.817Z,19.03
2022-10-06T11:45:03.388Z,18.86
2022-10-06T11:50:03.046Z,19.2
2022-10-06T11:55:03.997Z,18.93
2022-10-06T12:00:03.361Z,19.39
2022-10-06T12:05:03.114Z,19.31
2022-10-06T12:10:02.750Z,19.6
2022-10-06T12:20:02.600Z,19.52
2022-10-06T12:25:03.272Z,20.03
2022-10-06T12:30:03.247Z,19.93
2022-10-06T12:35:03.316Z,19.63
2022-10-06T12:40:02.508Z,19.89
2022-10-06T12:45:03.183Z,19.72
2022-10-06T12:50:02.862Z,20.36
2022-10-06T12:55:03.758Z,20.31
2022-10-06T13:00:03.370Z,19.63
2022-10-06T13:05:03.351Z,20.33
2022-10-06T13:10:03.329Z,20.01
2022-10-06T13:15:02.826Z,19.14
2022-10-06T13:20:02.716Z,19.24
2022-10-06T13:25:02.977Z,19.13
2022-10-06T13:30:02.640Z,19.36
2022-10-06T13:35:03.244Z,19.26
2022-10-06T13:40:33.636Z,19.34
2022-10-06T13:45:02.798Z,19.3
2022-10-06T13:50:04.445Z,19.6
2022-10-06T13:55:04.669Z,19.96
2022-10-06T14:00:03.079Z,19.59
2022-10-06T14:05:03.391Z,20.06
2022-10-06T14:10:03.033Z,19.87
2022-10-06T14:15:02.751Z,19.83
2022-10-06T14:20:03.803Z,20.6
2022-10-06T14:25:03.024Z,20.36
2022-10-06T14:30:03.695Z,20.43
2022-10-06T14:35:02.515Z,20.46
2022-10-06T14:40:03.459Z,20.55
2022-10-06T14:45:03.590Z,20.74
2022-10-06T14:50:02.434Z,20.55
2022-10-06T14:55:04.885Z,20.68
2022-10-06T15:00:03.915Z,20.55
2022-10-06T15:05:02.688Z,20.41
2022-10-06T15:10:02.405Z,21.07
2022-10-06T15:15:03.119Z,21.35
2022-10-06T15:20:02.802Z,21.84
2022-10-06T15:25:02.425Z,22.22
2022-10-06T15:30:03.199Z,21.32
2022-10-06T15:35:02.884Z,21.67
2022-10-06T15:40:02.759Z,21.38
2022-10-06T15:45:07.791Z,21.03
2022-10-06T15:50:04.036Z,19.21
2022-10-06T15:55:03.523Z,17.86
2022-10-06T16:00:03.269Z,16.87
2022-10-06T16:05:02.892Z,16.42
2022-10-06T16:10:02.544Z,16.2
2022-10-06T16:15:03.424Z,15.72
2022-10-06T16:20:03.295Z,15.38
2022-10-06T16:25:03.156Z,15.35
2022-10-06T16:30:02.751Z,14.73
2022-10-06T16:35:03.365Z,14.04
2022-10-06T16:40:02.880Z,13.6
2022-10-06T16:45:02.780Z,12.96
2022-10-06T16:50:03.191Z,12.64
2022-10-06T16:55:04.260Z,12.3
2022-10-06T17:00:02.795Z,11.88
2022-10-06T17:05:03.282Z,11.55
2022-10-06T17:10:21.660Z,11.33
2022-10-06T17:15:02.632Z,10.88
2022-10-06T17:20:03.362Z,10.69
2022-10-06T17:25:02.999Z,10.45
2022-10-06T17:30:02.822Z,10.68
2022-10-06T17:35:03.193Z,10.71
2022-10-06T17:40:02.996Z,11.11
2022-10-06T17:45:02.764Z,11.01
2022-10-06T17:50:03.392Z,10.37
2022-10-06T17:55:04.252Z,10.14
2022-10-06T18:00:02.732Z,10.05
2022-10-06T18:05:03.365Z,10.47
2022-10-06T18:10:02.994Z,10.75
2022-10-06T18:15:02.680Z,10.23
2022-10-06T18:20:03.345Z,10.14
2022-10-06T18:25:03.027Z,10.78
2022-10-06T18:30:02.663Z,10.99
2022-10-06T18:40:02.743Z,10.12
2022-10-06T18:45:03.286Z,9.48
2022-10-06T18:50:02.717Z,9.32
2022-10-06T18:55:03.573Z,8.95
2022-10-06T19:00:02.995Z,8.72
2022-10-06T19:05:02.655Z,9.03
2022-10-06T19:10:03.261Z,9.58
2022-10-06T19:15:02.901Z,9.56
2022-10-06T19:20:02.765Z,9.53
2022-10-06T19:25:02.745Z,8.83
2022-10-06T19:30:03.027Z,8.43
2022-10-06T19:35:10.451Z,8.45
2022-10-06T19:40:02.598Z,8.19
2022-10-06T19:45:03.259Z,7.89
2022-10-06T19:50:11.553Z,8.23
2022-10-06T19:55:04.103Z,8.37
2022-10-06T20:00:03.306Z,7.89
2022-10-06T20:05:02.890Z,8.48
2022-10-06T20:10:02.423Z,9.36
2022-10-06T20:15:03.107Z,9.14
2022-10-06T20:20:02.756Z,8.25
2022-10-06T20:25:02.433Z,7.94
2022-10-06T20:30:03.092Z,8.13
2022-10-06T20:35:02.655Z,7.91
2022-10-06T20:40:02.430Z,7.65
2022-10-06T20:45:03.105Z,7.09
2022-10-06T20:50:02.687Z,7.04
2022-10-06T20:55:03.913Z,6.83
2022-10-06T21:00:03.017Z,6.63
2022-10-06T21:05:02.615Z,6.5
2022-10-06T21:10:03.300Z,6.41
2022-10-06T21:15:02.950Z,6.38
2022-10-06T21:20:02.605Z,6.14
2022-10-06T21:25:03.297Z,6.1
2022-10-06T21:30:02.957Z,6.46
2022-10-06T21:35:02.528Z,6.32
2022-10-06T21:40:03.196Z,6.03
2022-10-06T21:45:02.757Z,6.91
2022-10-06T21:50:02.590Z,6.36
2022-10-06T21:55:04.661Z,6.07
2022-10-06T22:00:03.054Z,6.5
2022-10-06T22:05:02.559Z,6.47
2022-10-06T22:10:03.100Z,6.21
2022-10-06T22:15:02.743Z,6.14
2022-10-06T22:20:02.422Z,5.83
2022-10-06T22:25:03.027Z,5.37
2022-10-06T22:30:02.656Z,5.75
2022-10-06T22:35:03.152Z,5.48
2022-10-06T22:40:07.938Z,5.85
2022-10-06T22:45:02.648Z,5.69
2022-10-06T22:50:03.254Z,5.23
2022-10-06T22:55:04.181Z,5.29
2022-10-06T23:00:02.505Z,6.18
2022-10-06T23:05:03.158Z,5.99
2022-10-06T23:10:02.820Z,5.76
2022-10-06T23:15:02.620Z,5.65
2022-10-06T23:20:03.280Z,5.13
2022-10-06T23:25:03.137Z,4.67
2022-10-06T23:30:02.775Z,4.48
2022-10-06T23:35:02.358Z,5.22
2022-10-06T23:40:03.157Z,5.63
2022-10-06T23:45:02.899Z,5.58
2022-10-06T23:50:02.507Z,5.7
2022-10-06T23:55:04.597Z,5.73
